TimeMST,TemperatureF,Dew PointF,Humidity,Sea Level PressureIn,VisibilityMPH,Wind Direction,Wind SpeedMPH,Gust SpeedMPH,PrecipitationIn,Events,Conditions,WindDirDegrees,DateUTC
12:56 AM,39.0,30.0,70,29.81,10.0,WNW,8.1,-,N/A,,Scattered Clouds,290,2013-01-26 07:56:00
1:56 AM,39.9,30.9,70,29.81,10.0,West,11.5,-,N/A,,Overcast,280,2013-01-26 08:56:00
2:56 AM,41.0,30.9,67,29.81,10.0,West,16.1,-,N/A,,Clear,260,2013-01-26 09:56:00
3:56 AM,30.9,26.1,82,29.82,10.0,North,9.2,-,N/A,,Clear,10,2013-01-26 10:56:00
4:56 AM,30.9,26.1,82,29.83,10.0,SE,5.8,-,N/A,,Clear,140,2013-01-26 11:56:00
5:56 AM,30.9,26.1,82,29.83,10.0,Calm,Calm,-,N/A,,Mostly Cloudy,0,2013-01-26 12:56:00
6:56 AM,33.1,27.0,78,29.83,10.0,South,6.9,-,N/A,,Overcast,170,2013-01-26 13:56:00
7:56 AM,34.0,27.0,75,29.83,10.0,SSE,5.8,-,N/A,,Overcast,160,2013-01-26 14:56:00
8:56 AM,33.1,28.9,85,29.81,10.0,NE,6.9,-,N/A,,Mostly Cloudy,40,2013-01-26 15:56:00
9:56 AM,36.0,30.0,79,29.80,10.0,North,6.9,-,N/A,,Overcast,360,2013-01-26 16:56:00
10:08 AM,32.0,28.4,87,29.76,10.0,NW,11.5,-,N/A,,Overcast,320,2013-01-26 17:08:00
10:56 AM,39.0,33.1,79,29.81,10.0,NW,9.2,-,N/A,,Mostly Cloudy,310,2013-01-26 17:56:00
11:56 AM,39.0,33.1,79,29.79,10.0,NW,5.8,-,N/A,,Overcast,320,2013-01-26 18:56:00
12:56 PM,42.1,33.1,70,29.76,10.0,West,4.6,-,N/A,,Partly Cloudy,270,2013-01-26 19:56:00
1:56 PM,46.0,34.0,63,29.73,10.0,SE,3.5,-,N/A,,Overcast,140,2013-01-26 20:56:00
2:56 PM,43.0,26.1,51,29.74,10.0,West,12.7,-,N/A,,Overcast,260,2013-01-26 21:56:00
3:56 PM,41.0,23.0,49,29.76,10.0,West,10.4,-,N/A,,Overcast,270,2013-01-26 22:56:00
4:56 PM,39.9,25.0,55,29.77,10.0,West,13.8,-,N/A,,Overcast,260,2013-01-26 23:56:00
5:56 PM,37.9,26.1,62,29.77,10.0,West,10.4,-,N/A,,Overcast,270,2013-01-27 00:56:00
6:56 PM,35.1,25.0,67,29.78,10.0,West,17.3,-,N/A,,Mostly Cloudy,260,2013-01-27 01:56:00
7:56 PM,35.1,23.0,61,29.78,10.0,WSW,20.7,-,N/A,,Clear,250,2013-01-27 02:56:00
8:56 PM,34.0,21.9,61,29.80,10.0,West,12.7,-,N/A,,Partly Cloudy,260,2013-01-27 03:56:00
9:56 PM,32.0,21.0,64,29.79,10.0,West,12.7,-,N/A,,Clear,260,2013-01-27 04:56:00
10:56 PM,32.0,19.9,61,29.80,10.0,West,11.5,-,N/A,,Clear,260,2013-01-27 05:56:00
11:56 PM,26.1,18.0,71,29.82,10.0,WNW,9.2,-,N/A,,Clear,290,2013-01-27 06:56:00